sensor_id;sensor_type;location;lat;lon;timestamp;temperature;humidity
47660;DHT22;33403;43.608;1.458;2023-07-13T00:02:23;22.70;99.90
47660;DHT22;33403;43.608;1.458;2023-07-13T00:04:49;22.70;99.90
47660;DHT22;33403;43.608;1.458;2023-07-13T00:07:16;22.80;99.90
47660;DHT22;33403;43.608;1.458;2023-07-13T00:09:45;22.80;99.90
47660;DHT22;33403;43.608;1.458;2023-07-13T00:12:29;22.80;99.90
47660;DHT22;33403;43.608;1.458;2023-07-13T00:14:57;22.80;99.90
47660;DHT22;33403;43.608;1.458;2023-07-13T00:17:23;22.80;99.90
47660;DHT22;33403;43.608;1.458;2023-07-13T00:19:49;22.80;99.90
47660;DHT22;33403;43.608;1.458;2023-07-13T00:22:14;22.70;99.90
47660;DHT22;33403;43.608;1.458;2023-07-13T00:24:40;22.70;99.90
47660;DHT22;33403;43.608;1.458;2023-07-13T00:27:10;22.70;99.90
47660;DHT22;33403;43.608;1.458;2023-07-13T00:29:36;22.60;99.90
47660;DHT22;33403;43.608;1.458;2023-07-13T00:32:04;22.60;99.90
47660;DHT22;33403;43.608;1.458;2023-07-13T00:34:30;22.50;99.90
47660;DHT22;33403;43.608;1.458;2023-07-13T00:36:56;22.50;99.90
47660;DHT22;33403;43.608;1.458;2023-07-13T00:39:22;22.60;99.90
47660;DHT22;33403;43.608;1.458;2023-07-13T00:41:48;22.60;99.90
47660;DHT22;33403;43.608;1.458;2023-07-13T00:44:15;22.60;99.90
47660;DHT22;33403;43.608;1.458;2023-07-13T00:46:41;22.60;99.90
47660;DHT22;33403;43.608;1.458;2023-07-13T00:49:10;22.60;99.90
47660;DHT22;33403;43.608;1.458;2023-07-13T00:51:53;22.60;99.90
47660;DHT22;33403;43.608;1.458;2023-07-13T00:54:41;22.70;99.90
47660;DHT22;33403;43.608;1.458;2023-07-13T00:57:12;22.70;99.90
47660;DHT22;33403;43.608;1.458;2023-07-13T00:59:45;22.60;99.90
47660;DHT22;33403;43.608;1.458;2023-07-13T01:02:12;22.60;99.90
47660;DHT22;33403;43.608;1.458;2023-07-13T01:04:38;22.60;99.90
47660;DHT22;33403;43.608;1.458;2023-07-13T01:07:06;22.60;99.90
47660;DHT22;33403;43.608;1.458;2023-07-13T01:09:32;22.60;99.90
47660;DHT22;33403;43.608;1.458;2023-07-13T01:11:57;22.60;99.90
47660;DHT22;33403;43.608;1.458;2023-07-13T01:14:25;22.50;99.90
47660;DHT22;33403;43.608;1.458;2023-07-13T01:16:51;22.50;99.90
47660;DHT22;33403;43.608;1.458;2023-07-13T01:19:44;22.50;99.90
47660;DHT22;33403;43.608;1.458;2023-07-13T01:22:15;22.40;99.90
47660;DHT22;33403;43.608;1.458;2023-07-13T01:24:44;22.40;99.90
47660;DHT22;33403;43.608;1.458;2023-07-13T01:27:12;22.50;99.90
47660;DHT22;33403;43.608;1.458;2023-07-13T01:29:42;22.50;99.90
47660;DHT22;33403;43.608;1.458;2023-07-13T01:32:10;22.40;99.90
47660;DHT22;33403;43.608;1.458;2023-07-13T01:34:36;22.50;99.90
47660;DHT22;33403;43.608;1.458;2023-07-13T01:37:03;22.50;99.90
47660;DHT22;33403;43.608;1.458;2023-07-13T01:39:30;22.50;99.90
47660;DHT22;33403;43.608;1.458;2023-07-13T01:41:55;22.50;99.90
47660;DHT22;33403;43.608;1.458;2023-07-13T01:44:21;22.50;99.90
47660;DHT22;33403;43.608;1.458;2023-07-13T01:46:47;22.50;99.90
47660;DHT22;33403;43.608;1.458;2023-07-13T01:49:12;22.50;99.90
47660;DHT22;33403;43.608;1.458;2023-07-13T01:51:38;22.50;99.90
47660;DHT22;33403;43.608;1.458;2023-07-13T01:54:03;22.40;99.90
47660;DHT22;33403;43.608;1.458;2023-07-13T01:56:29;22.40;99.90
47660;DHT22;33403;43.608;1.458;2023-07-13T01:58:55;22.40;99.90
47660;DHT22;33403;43.608;1.458;2023-07-13T02:01:20;22.40;99.90
47660;DHT22;33403;43.608;1.458;2023-07-13T02:03:46;22.40;99.90
47660;DHT22;33403;43.608;1.458;2023-07-13T02:06:12;22.40;99.90
47660;DHT22;33403;43.608;1.458;2023-07-13T02:08:38;22.30;99.90
47660;DHT22;33403;43.608;1.458;2023-07-13T02:11:03;22.30;99.90
47660;DHT22;33403;43.608;1.458;2023-07-13T02:13:29;22.30;99.90
47660;DHT22;33403;43.608;1.458;2023-07-13T02:15:55;22.30;99.90
47660;DHT22;33403;43.608;1.458;2023-07-13T02:18:21;22.20;99.90
47660;DHT22;33403;43.608;1.458;2023-07-13T02:20:46;22.20;99.90
47660;DHT22;33403;43.608;1.458;2023-07-13T02:23:12;22.10;99.90
47660;DHT22;33403;43.608;1.458;2023-07-13T02:25:38;22.20;99.90
47660;DHT22;33403;43.608;1.458;2023-07-13T02:28:03;22.20;99.90
47660;DHT22;33403;43.608;1.458;2023-07-13T02:30:30;22.20;99.90
47660;DHT22;33403;43.608;1.458;2023-07-13T02:32:56;22.10;99.90
47660;DHT22;33403;43.608;1.458;2023-07-13T02:35:22;22.10;99.90
47660;DHT22;33403;43.608;1.458;2023-07-13T02:37:48;22.10;99.90
47660;DHT22;33403;43.608;1.458;2023-07-13T02:40:14;22.10;99.90
47660;DHT22;33403;43.608;1.458;2023-07-13T02:42:40;22.10;99.90
47660;DHT22;33403;43.608;1.458;2023-07-13T02:45:07;22.00;99.90
47660;DHT22;33403;43.608;1.458;2023-07-13T02:47:33;22.00;99.90
47660;DHT22;33403;43.608;1.458;2023-07-13T02:49:58;21.90;99.90
47660;DHT22;33403;43.608;1.458;2023-07-13T02:52:24;21.90;99.90
47660;DHT22;33403;43.608;1.458;2023-07-13T02:54:50;21.90;99.90
47660;DHT22;33403;43.608;1.458;2023-07-13T02:57:16;21.70;99.90
47660;DHT22;33403;43.608;1.458;2023-07-13T02:59:42;21.70;99.90
47660;DHT22;33403;43.608;1.458;2023-07-13T03:02:07;21.70;99.90
47660;DHT22;33403;43.608;1.458;2023-07-13T03:04:35;21.70;99.90
47660;DHT22;33403;43.608;1.458;2023-07-13T03:07:01;21.70;99.90
47660;DHT22;33403;43.608;1.458;2023-07-13T03:09:27;21.70;99.90
47660;DHT22;33403;43.608;1.458;2023-07-13T03:11:54;21.80;99.90
47660;DHT22;33403;43.608;1.458;2023-07-13T03:14:21;21.70;99.90
47660;DHT22;33403;43.608;1.458;2023-07-13T03:16:47;21.70;99.90
47660;DHT22;33403;43.608;1.458;2023-07-13T03:19:13;21.60;99.90
47660;DHT22;33403;43.608;1.458;2023-07-13T03:21:39;21.60;99.90
47660;DHT22;33403;43.608;1.458;2023-07-13T03:24:05;21.60;99.90
47660;DHT22;33403;43.608;1.458;2023-07-13T03:26:30;21.50;99.90
47660;DHT22;33403;43.608;1.458;2023-07-13T03:28:57;21.50;99.90
47660;DHT22;33403;43.608;1.458;2023-07-13T03:31:26;21.50;99.90
47660;DHT22;33403;43.608;1.458;2023-07-13T03:33:54;21.50;99.90
47660;DHT22;33403;43.608;1.458;2023-07-13T03:36:23;21.40;99.90
47660;DHT22;33403;43.608;1.458;2023-07-13T03:38:52;21.40;99.90
47660;DHT22;33403;43.608;1.458;2023-07-13T03:41:19;21.40;99.90
47660;DHT22;33403;43.608;1.458;2023-07-13T03:43:44;21.40;99.90
47660;DHT22;33403;43.608;1.458;2023-07-13T03:46:10;21.40;99.90
47660;DHT22;33403;43.608;1.458;2023-07-13T03:48:36;21.30;99.90
47660;DHT22;33403;43.608;1.458;2023-07-13T03:51:02;21.30;99.90
47660;DHT22;33403;43.608;1.458;2023-07-13T03:53:28;21.30;99.90
47660;DHT22;33403;43.608;1.458;2023-07-13T03:55:53;21.40;99.90
47660;DHT22;33403;43.608;1.458;2023-07-13T04:00:52;21.30;99.90
47660;DHT22;33403;43.608;1.458;2023-07-13T04:03:17;21.30;99.90
47660;DHT22;33403;43.608;1.458;2023-07-13T04:05:43;21.20;99.90
47660;DHT22;33403;43.608;1.458;2023-07-13T04:08:09;21.10;99.90
47660;DHT22;33403;43.608;1.458;2023-07-13T04:10:34;21.10;99.90
47660;DHT22;33403;43.608;1.458;2023-07-13T04:13:00;21.00;99.90
47660;DHT22;33403;43.608;1.458;2023-07-13T04:15:28;21.00;99.90
47660;DHT22;33403;43.608;1.458;2023-07-13T04:17:54;21.00;99.90
47660;DHT22;33403;43.608;1.458;2023-07-13T04:20:20;21.00;99.90
47660;DHT22;33403;43.608;1.458;2023-07-13T04:22:47;21.00;99.90
47660;DHT22;33403;43.608;1.458;2023-07-13T04:25:12;20.90;99.90
47660;DHT22;33403;43.608;1.458;2023-07-13T04:27:38;20.90;99.90
47660;DHT22;33403;43.608;1.458;2023-07-13T04:30:05;20.90;99.90
47660;DHT22;33403;43.608;1.458;2023-07-13T04:32:31;20.90;99.90
47660;DHT22;33403;43.608;1.458;2023-07-13T04:34:58;20.80;99.90
47660;DHT22;33403;43.608;1.458;2023-07-13T04:37:25;20.80;99.90
47660;DHT22;33403;43.608;1.458;2023-07-13T04:39:51;20.70;99.90
47660;DHT22;33403;43.608;1.458;2023-07-13T04:42:17;20.60;99.90
47660;DHT22;33403;43.608;1.458;2023-07-13T04:44:48;20.60;99.90
47660;DHT22;33403;43.608;1.458;2023-07-13T04:47:14;20.60;99.90
47660;DHT22;33403;43.608;1.458;2023-07-13T04:49:40;20.70;99.90
47660;DHT22;33403;43.608;1.458;2023-07-13T04:52:06;20.80;99.90
47660;DHT22;33403;43.608;1.458;2023-07-13T04:54:33;20.90;99.90
47660;DHT22;33403;43.608;1.458;2023-07-13T04:56:59;20.90;99.90
47660;DHT22;33403;43.608;1.458;2023-07-13T04:59:25;20.90;99.90
47660;DHT22;33403;43.608;1.458;2023-07-13T05:01:50;21.00;99.90
47660;DHT22;33403;43.608;1.458;2023-07-13T05:04:16;21.00;99.90
47660;DHT22;33403;43.608;1.458;2023-07-13T05:06:42;21.00;99.90
47660;DHT22;33403;43.608;1.458;2023-07-13T05:09:08;21.00;99.90
47660;DHT22;33403;43.608;1.458;2023-07-13T05:11:34;20.90;99.90
47660;DHT22;33403;43.608;1.458;2023-07-13T05:13:59;20.90;99.90
47660;DHT22;33403;43.608;1.458;2023-07-13T05:16:27;20.90;99.90
47660;DHT22;33403;43.608;1.458;2023-07-13T05:18:53;21.00;99.90
47660;DHT22;33403;43.608;1.458;2023-07-13T05:21:18;20.90;99.90
47660;DHT22;33403;43.608;1.458;2023-07-13T05:23:44;21.00;99.90
47660;DHT22;33403;43.608;1.458;2023-07-13T05:26:11;21.00;99.90
47660;DHT22;33403;43.608;1.458;2023-07-13T05:28:37;21.00;99.90
47660;DHT22;33403;43.608;1.458;2023-07-13T05:31:04;21.10;99.90
47660;DHT22;33403;43.608;1.458;2023-07-13T05:33:30;21.10;99.90
47660;DHT22;33403;43.608;1.458;2023-07-13T05:35:55;21.20;99.90
47660;DHT22;33403;43.608;1.458;2023-07-13T05:38:22;21.20;99.90
47660;DHT22;33403;43.608;1.458;2023-07-13T05:40:48;21.20;99.90
47660;DHT22;33403;43.608;1.458;2023-07-13T05:43:13;21.20;99.90
47660;DHT22;33403;43.608;1.458;2023-07-13T05:45:40;21.20;99.90
47660;DHT22;33403;43.608;1.458;2023-07-13T05:48:06;21.20;99.90
47660;DHT22;33403;43.608;1.458;2023-07-13T05:50:31;21.20;99.90
47660;DHT22;33403;43.608;1.458;2023-07-13T05:52:57;21.20;99.90
47660;DHT22;33403;43.608;1.458;2023-07-13T05:55:23;21.20;99.90
47660;DHT22;33403;43.608;1.458;2023-07-13T05:57:49;21.30;99.90
47660;DHT22;33403;43.608;1.458;2023-07-13T06:00:15;21.40;99.90
47660;DHT22;33403;43.608;1.458;2023-07-13T06:02:41;21.30;99.90
47660;DHT22;33403;43.608;1.458;2023-07-13T06:05:07;21.30;99.90
47660;DHT22;33403;43.608;1.458;2023-07-13T06:07:33;21.30;99.90
47660;DHT22;33403;43.608;1.458;2023-07-13T06:09:58;21.30;99.90
47660;DHT22;33403;43.608;1.458;2023-07-13T06:12:25;21.40;99.90
47660;DHT22;33403;43.608;1.458;2023-07-13T06:14:51;21.40;99.90
47660;DHT22;33403;43.608;1.458;2023-07-13T06:17:16;21.60;99.90
47660;DHT22;33403;43.608;1.458;2023-07-13T06:19:42;21.80;99.90
47660;DHT22;33403;43.608;1.458;2023-07-13T06:22:07;22.00;99.90
47660;DHT22;33403;43.608;1.458;2023-07-13T06:24:33;22.10;99.90
47660;DHT22;33403;43.608;1.458;2023-07-13T06:26:59;22.30;99.90
47660;DHT22;33403;43.608;1.458;2023-07-13T06:29:24;22.40;99.90
47660;DHT22;33403;43.608;1.458;2023-07-13T06:31:50;22.40;99.90
47660;DHT22;33403;43.608;1.458;2023-07-13T06:34:16;22.40;99.90
47660;DHT22;33403;43.608;1.458;2023-07-13T06:36:41;22.40;99.90
47660;DHT22;33403;43.608;1.458;2023-07-13T06:39:07;22.40;99.90
47660;DHT22;33403;43.608;1.458;2023-07-13T06:41:33;22.40;99.90
47660;DHT22;33403;43.608;1.458;2023-07-13T06:43:59;22.40;99.90
47660;DHT22;33403;43.608;1.458;2023-07-13T06:46:25;22.50;99.90
47660;DHT22;33403;43.608;1.458;2023-07-13T06:48:50;22.50;99.90
47660;DHT22;33403;43.608;1.458;2023-07-13T06:51:16;22.60;99.90
47660;DHT22;33403;43.608;1.458;2023-07-13T06:53:42;22.80;99.90
47660;DHT22;33403;43.608;1.458;2023-07-13T06:56:09;23.00;99.90
47660;DHT22;33403;43.608;1.458;2023-07-13T06:58:36;23.20;99.90
47660;DHT22;33403;43.608;1.458;2023-07-13T07:01:03;23.00;99.90
47660;DHT22;33403;43.608;1.458;2023-07-13T07:03:29;22.90;99.90
47660;DHT22;33403;43.608;1.458;2023-07-13T07:06:00;22.70;99.90
47660;DHT22;33403;43.608;1.458;2023-07-13T07:08:26;22.80;99.90
47660;DHT22;33403;43.608;1.458;2023-07-13T07:10:51;22.90;99.90
47660;DHT22;33403;43.608;1.458;2023-07-13T07:13:19;23.10;99.90
47660;DHT22;33403;43.608;1.458;2023-07-13T07:15:45;23.20;99.90
47660;DHT22;33403;43.608;1.458;2023-07-13T07:18:11;23.20;99.90
47660;DHT22;33403;43.608;1.458;2023-07-13T07:20:36;23.20;99.90
47660;DHT22;33403;43.608;1.458;2023-07-13T07:23:02;23.20;99.90
47660;DHT22;33403;43.608;1.458;2023-07-13T07:25:27;23.10;99.90
47660;DHT22;33403;43.608;1.458;2023-07-13T07:27:57;23.10;99.90
47660;DHT22;33403;43.608;1.458;2023-07-13T07:30:23;23.20;99.90
47660;DHT22;33403;43.608;1.458;2023-07-13T07:32:49;23.30;99.90
47660;DHT22;33403;43.608;1.458;2023-07-13T07:35:14;23.40;99.90
47660;DHT22;33403;43.608;1.458;2023-07-13T07:37:40;23.50;99.90
47660;DHT22;33403;43.608;1.458;2023-07-13T07:40:07;23.50;99.60
47660;DHT22;33403;43.608;1.458;2023-07-13T07:42:33;23.60;99.90
47660;DHT22;33403;43.608;1.458;2023-07-13T07:44:59;23.70;99.00
47660;DHT22;33403;43.608;1.458;2023-07-13T07:47:26;23.80;99.40
47660;DHT22;33403;43.608;1.458;2023-07-13T07:49:51;24.00;99.10
47660;DHT22;33403;43.608;1.458;2023-07-13T07:52:18;24.40;98.50
47660;DHT22;33403;43.608;1.458;2023-07-13T07:54:43;24.50;96.80
47660;DHT22;33403;43.608;1.458;2023-07-13T07:57:09;24.50;95.10
47660;DHT22;33403;43.608;1.458;2023-07-13T07:59:36;24.60;97.20
47660;DHT22;33403;43.608;1.458;2023-07-13T08:02:02;24.40;97.50
47660;DHT22;33403;43.608;1.458;2023-07-13T08:04:28;24.20;97.50
47660;DHT22;33403;43.608;1.458;2023-07-13T08:06:53;24.00;98.60
47660;DHT22;33403;43.608;1.458;2023-07-13T08:09:21;23.70;98.90
47660;DHT22;33403;43.608;1.458;2023-07-13T08:11:47;23.50;98.70
47660;DHT22;33403;43.608;1.458;2023-07-13T08:14:13;23.30;99.90
47660;DHT22;33403;43.608;1.458;2023-07-13T08:16:39;23.20;99.90
47660;DHT22;33403;43.608;1.458;2023-07-13T08:19:05;23.00;99.80
47660;DHT22;33403;43.608;1.458;2023-07-13T08:21:31;23.00;99.90
47660;DHT22;33403;43.608;1.458;2023-07-13T08:23:57;23.10;99.90
47660;DHT22;33403;43.608;1.458;2023-07-13T08:26:23;23.10;99.90
47660;DHT22;33403;43.608;1.458;2023-07-13T08:28:48;23.30;99.40
47660;DHT22;33403;43.608;1.458;2023-07-13T08:31:14;23.40;99.90
47660;DHT22;33403;43.608;1.458;2023-07-13T08:33:40;23.40;99.80
47660;DHT22;33403;43.608;1.458;2023-07-13T08:36:06;23.50;99.60
47660;DHT22;33403;43.608;1.458;2023-07-13T08:38:32;23.50;97.60
47660;DHT22;33403;43.608;1.458;2023-07-13T08:40:59;23.50;97.40
47660;DHT22;33403;43.608;1.458;2023-07-13T08:43:30;23.60;98.30
47660;DHT22;33403;43.608;1.458;2023-07-13T08:46:19;23.70;97.50
47660;DHT22;33403;43.608;1.458;2023-07-13T08:48:55;23.80;95.90
47660;DHT22;33403;43.608;1.458;2023-07-13T08:54:28;23.90;95.90
47660;DHT22;33403;43.608;1.458;2023-07-13T08:56:56;24.00;94.90
47660;DHT22;33403;43.608;1.458;2023-07-13T08:59:28;24.00;96.40
47660;DHT22;33403;43.608;1.458;2023-07-13T09:04:48;24.20;95.40
47660;DHT22;33403;43.608;1.458;2023-07-13T09:07:30;24.20;94.80
47660;DHT22;33403;43.608;1.458;2023-07-13T09:15:30;24.40;95.40
47660;DHT22;33403;43.608;1.458;2023-07-13T09:18:01;24.50;95.50
47660;DHT22;33403;43.608;1.458;2023-07-13T09:20:31;24.50;95.70
47660;DHT22;33403;43.608;1.458;2023-07-13T09:23:00;24.50;95.40
47660;DHT22;33403;43.608;1.458;2023-07-13T09:25:29;24.50;95.80
47660;DHT22;33403;43.608;1.458;2023-07-13T09:27:59;24.60;95.90
47660;DHT22;33403;43.608;1.458;2023-07-13T09:30:35;24.70;96.30
47660;DHT22;33403;43.608;1.458;2023-07-13T09:33:03;24.80;95.80
47660;DHT22;33403;43.608;1.458;2023-07-13T09:35:30;24.80;95.60
47660;DHT22;33403;43.608;1.458;2023-07-13T09:38:10;24.80;95.40
47660;DHT22;33403;43.608;1.458;2023-07-13T09:43:13;25.00;95.80
47660;DHT22;33403;43.608;1.458;2023-07-13T09:45:39;25.50;94.40
47660;DHT22;33403;43.608;1.458;2023-07-13T09:48:16;25.70;93.60
47660;DHT22;33403;43.608;1.458;2023-07-13T09:50:43;25.80;93.80
47660;DHT22;33403;43.608;1.458;2023-07-13T09:53:17;25.90;93.20
47660;DHT22;33403;43.608;1.458;2023-07-13T09:55:48;26.10;92.50
47660;DHT22;33403;43.608;1.458;2023-07-13T09:58:18;26.40;91.40
47660;DHT22;33403;43.608;1.458;2023-07-13T10:00:58;26.60;91.80
47660;DHT22;33403;43.608;1.458;2023-07-13T10:03:26;26.50;92.00
47660;DHT22;33403;43.608;1.458;2023-07-13T10:05:53;26.40;92.60
47660;DHT22;33403;43.608;1.458;2023-07-13T10:08:27;26.60;92.50
47660;DHT22;33403;43.608;1.458;2023-07-13T10:10:58;26.90;92.30
47660;DHT22;33403;43.608;1.458;2023-07-13T10:13:28;26.80;91.80
47660;DHT22;33403;43.608;1.458;2023-07-13T10:15:56;26.80;90.20
47660;DHT22;33403;43.608;1.458;2023-07-13T10:18:24;26.90;91.10
47660;DHT22;33403;43.608;1.458;2023-07-13T10:20:55;27.10;90.90
47660;DHT22;33403;43.608;1.458;2023-07-13T10:23:31;27.00;90.60
47660;DHT22;33403;43.608;1.458;2023-07-13T10:25:59;26.80;89.00
47660;DHT22;33403;43.608;1.458;2023-07-13T10:28:33;26.70;90.70
47660;DHT22;33403;43.608;1.458;2023-07-13T10:31:01;26.80;91.10
47660;DHT22;33403;43.608;1.458;2023-07-13T10:33:28;26.80;90.50
47660;DHT22;33403;43.608;1.458;2023-07-13T10:36:12;26.70;90.20
47660;DHT22;33403;43.608;1.458;2023-07-13T10:38:39;26.60;91.10
47660;DHT22;33403;43.608;1.458;2023-07-13T10:41:11;26.50;90.00
47660;DHT22;33403;43.608;1.458;2023-07-13T10:43:43;26.60;90.80
47660;DHT22;33403;43.608;1.458;2023-07-13T10:46:12;27.00;90.80
47660;DHT22;33403;43.608;1.458;2023-07-13T10:48:40;27.30;89.40
47660;DHT22;33403;43.608;1.458;2023-07-13T10:51:08;27.50;89.70
47660;DHT22;33403;43.608;1.458;2023-07-13T10:53:38;27.40;88.60
47660;DHT22;33403;43.608;1.458;2023-07-13T10:56:18;27.30;89.40
47660;DHT22;33403;43.608;1.458;2023-07-13T10:58:44;27.20;90.10
47660;DHT22;33403;43.608;1.458;2023-07-13T11:01:14;27.30;89.10
47660;DHT22;33403;43.608;1.458;2023-07-13T11:14:00;26.90;91.10
47660;DHT22;33403;43.608;1.458;2023-07-13T11:16:44;27.00;89.80
47660;DHT22;33403;43.608;1.458;2023-07-13T11:22:41;26.80;90.90
47660;DHT22;33403;43.608;1.458;2023-07-13T11:27:50;27.20;89.00
47660;DHT22;33403;43.608;1.458;2023-07-13T11:32:42;27.00;87.30
47660;DHT22;33403;43.608;1.458;2023-07-13T11:35:23;27.20;87.10
47660;DHT22;33403;43.608;1.458;2023-07-13T11:37:52;27.20;85.10
47660;DHT22;33403;43.608;1.458;2023-07-13T11:40:18;27.30;88.90
47660;DHT22;33403;43.608;1.458;2023-07-13T11:42:44;27.30;88.10
47660;DHT22;33403;43.608;1.458;2023-07-13T11:45:22;27.50;89.40
47660;DHT22;33403;43.608;1.458;2023-07-13T11:47:49;27.50;83.90
47660;DHT22;33403;43.608;1.458;2023-07-13T11:50:23;27.30;87.50
47660;DHT22;33403;43.608;1.458;2023-07-13T11:52:51;27.20;87.50
47660;DHT22;33403;43.608;1.458;2023-07-13T11:55:20;27.20;88.40
47660;DHT22;33403;43.608;1.458;2023-07-13T11:57:54;27.10;88.40
47660;DHT22;33403;43.608;1.458;2023-07-13T12:00:25;26.80;87.90
47660;DHT22;33403;43.608;1.458;2023-07-13T12:02:55;26.60;89.00
47660;DHT22;33403;43.608;1.458;2023-07-13T12:05:21;26.60;91.30
47660;DHT22;33403;43.608;1.458;2023-07-13T12:07:48;26.50;90.10
47660;DHT22;33403;43.608;1.458;2023-07-13T12:12:53;27.00;87.70
47660;DHT22;33403;43.608;1.458;2023-07-13T12:15:20;27.10;88.60
47660;DHT22;33403;43.608;1.458;2023-07-13T12:17:48;27.20;89.00
47660;DHT22;33403;43.608;1.458;2023-07-13T12:20:23;27.30;87.50
47660;DHT22;33403;43.608;1.458;2023-07-13T12:22:50;27.20;85.10
47660;DHT22;33403;43.608;1.458;2023-07-13T12:25:16;27.20;88.20
47660;DHT22;33403;43.608;1.458;2023-07-13T12:27:47;27.30;87.60
47660;DHT22;33403;43.608;1.458;2023-07-13T12:32:56;27.30;88.50
47660;DHT22;33403;43.608;1.458;2023-07-13T12:35:22;27.30;88.80
47660;DHT22;33403;43.608;1.458;2023-07-13T12:37:48;27.30;89.10
47660;DHT22;33403;43.608;1.458;2023-07-13T12:40:16;27.50;88.20
47660;DHT22;33403;43.608;1.458;2023-07-13T12:42:46;27.80;87.10
47660;DHT22;33403;43.608;1.458;2023-07-13T12:47:52;27.80;85.80
47660;DHT22;33403;43.608;1.458;2023-07-13T12:50:21;27.60;86.10
47660;DHT22;33403;43.608;1.458;2023-07-13T12:52:54;27.40;87.40
47660;DHT22;33403;43.608;1.458;2023-07-13T12:55:22;27.60;88.90
47660;DHT22;33403;43.608;1.458;2023-07-13T12:57:56;27.80;87.30
47660;DHT22;33403;43.608;1.458;2023-07-13T13:00:35;28.00;87.70
47660;DHT22;33403;43.608;1.458;2023-07-13T13:03:16;27.80;82.90
47660;DHT22;33403;43.608;1.458;2023-07-13T13:05:45;27.30;83.80
47660;DHT22;33403;43.608;1.458;2023-07-13T13:08:11;27.10;85.60
47660;DHT22;33403;43.608;1.458;2023-07-13T13:10:37;27.00;87.70
47660;DHT22;33403;43.608;1.458;2023-07-13T13:13:03;27.20;88.30
47660;DHT22;33403;43.608;1.458;2023-07-13T13:15:28;27.50;88.40
47660;DHT22;33403;43.608;1.458;2023-07-13T13:17:56;27.40;85.00
47660;DHT22;33403;43.608;1.458;2023-07-13T13:20:22;27.20;87.00
47660;DHT22;33403;43.608;1.458;2023-07-13T13:22:48;27.10;87.90
47660;DHT22;33403;43.608;1.458;2023-07-13T13:25:15;27.00;88.20
47660;DHT22;33403;43.608;1.458;2023-07-13T13:27:42;26.90;86.60
47660;DHT22;33403;43.608;1.458;2023-07-13T13:30:11;26.90;87.90
47660;DHT22;33403;43.608;1.458;2023-07-13T13:32:39;26.90;87.50
47660;DHT22;33403;43.608;1.458;2023-07-13T13:35:05;27.10;85.40
47660;DHT22;33403;43.608;1.458;2023-07-13T13:37:33;27.20;87.00
47660;DHT22;33403;43.608;1.458;2023-07-13T13:39:59;27.30;86.50
47660;DHT22;33403;43.608;1.458;2023-07-13T13:42:25;27.50;86.60
47660;DHT22;33403;43.608;1.458;2023-07-13T13:44:52;27.60;82.90
47660;DHT22;33403;43.608;1.458;2023-07-13T13:47:33;27.60;87.00
47660;DHT22;33403;43.608;1.458;2023-07-13T13:50:04;27.50;86.50
47660;DHT22;33403;43.608;1.458;2023-07-13T13:52:35;27.60;87.50
47660;DHT22;33403;43.608;1.458;2023-07-13T13:55:00;27.50;86.10
47660;DHT22;33403;43.608;1.458;2023-07-13T13:57:26;27.20;84.00
47660;DHT22;33403;43.608;1.458;2023-07-13T13:59:52;27.00;85.50
47660;DHT22;33403;43.608;1.458;2023-07-13T14:02:26;27.10;86.90
47660;DHT22;33403;43.608;1.458;2023-07-13T14:05:01;27.10;83.70
47660;DHT22;33403;43.608;1.458;2023-07-13T14:07:28;27.20;84.90
47660;DHT22;33403;43.608;1.458;2023-07-13T14:09:57;27.10;82.80
47660;DHT22;33403;43.608;1.458;2023-07-13T14:12:23;27.10;86.10
47660;DHT22;33403;43.608;1.458;2023-07-13T14:14:54;27.10;87.80
47660;DHT22;33403;43.608;1.458;2023-07-13T14:17:22;26.90;87.50
47660;DHT22;33403;43.608;1.458;2023-07-13T14:19:50;26.70;85.20
47660;DHT22;33403;43.608;1.458;2023-07-13T14:22:17;26.70;87.10
47660;DHT22;33403;43.608;1.458;2023-07-13T14:24:43;26.50;86.70
47660;DHT22;33403;43.608;1.458;2023-07-13T14:27:11;26.30;88.30
47660;DHT22;33403;43.608;1.458;2023-07-13T14:29:38;26.30;88.30
47660;DHT22;33403;43.608;1.458;2023-07-13T14:32:04;26.20;88.40
47660;DHT22;33403;43.608;1.458;2023-07-13T14:34:31;26.10;89.10
47660;DHT22;33403;43.608;1.458;2023-07-13T14:36:57;26.00;88.30
47660;DHT22;33403;43.608;1.458;2023-07-13T14:39:24;26.00;90.30
47660;DHT22;33403;43.608;1.458;2023-07-13T14:41:52;26.10;90.30
47660;DHT22;33403;43.608;1.458;2023-07-13T14:44:26;26.40;89.70
47660;DHT22;33403;43.608;1.458;2023-07-13T14:46:54;26.60;89.40
47660;DHT22;33403;43.608;1.458;2023-07-13T14:49:36;26.70;88.30
47660;DHT22;33403;43.608;1.458;2023-07-13T14:52:18;26.60;86.00
47660;DHT22;33403;43.608;1.458;2023-07-13T14:54:44;26.70;86.10
47660;DHT22;33403;43.608;1.458;2023-07-13T14:57:12;26.70;84.30
47660;DHT22;33403;43.608;1.458;2023-07-13T14:59:38;26.70;81.80
47660;DHT22;33403;43.608;1.458;2023-07-13T15:02:17;26.80;85.90
47660;DHT22;33403;43.608;1.458;2023-07-13T15:04:44;26.90;85.50
47660;DHT22;33403;43.608;1.458;2023-07-13T15:07:10;26.80;84.00
47660;DHT22;33403;43.608;1.458;2023-07-13T15:09:36;26.50;82.50
47660;DHT22;33403;43.608;1.458;2023-07-13T15:12:03;26.20;85.90
47660;DHT22;33403;43.608;1.458;2023-07-13T15:14:30;26.00;87.00
47660;DHT22;33403;43.608;1.458;2023-07-13T15:16:56;26.00;85.70
47660;DHT22;33403;43.608;1.458;2023-07-13T15:19:23;25.90;88.20
47660;DHT22;33403;43.608;1.458;2023-07-13T15:21:49;25.90;87.30
47660;DHT22;33403;43.608;1.458;2023-07-13T15:24:15;25.90;86.40
47660;DHT22;33403;43.608;1.458;2023-07-13T15:26:42;25.90;87.10
47660;DHT22;33403;43.608;1.458;2023-07-13T15:29:12;26.00;84.90
47660;DHT22;33403;43.608;1.458;2023-07-13T15:31:37;25.90;82.90
47660;DHT22;33403;43.608;1.458;2023-07-13T15:34:13;25.90;85.00
47660;DHT22;33403;43.608;1.458;2023-07-13T15:36:39;25.90;84.80
47660;DHT22;33403;43.608;1.458;2023-07-13T15:39:06;25.90;86.10
47660;DHT22;33403;43.608;1.458;2023-07-13T15:41:33;25.90;84.60
47660;DHT22;33403;43.608;1.458;2023-07-13T15:44:00;26.00;83.30
47660;DHT22;33403;43.608;1.458;2023-07-13T15:46:30;26.00;85.60
47660;DHT22;33403;43.608;1.458;2023-07-13T15:48:57;25.90;83.20
47660;DHT22;33403;43.608;1.458;2023-07-13T15:51:26;25.80;82.60
47660;DHT22;33403;43.608;1.458;2023-07-13T15:53:59;25.60;84.20
47660;DHT22;33403;43.608;1.458;2023-07-13T15:56:29;25.60;80.70
47660;DHT22;33403;43.608;1.458;2023-07-13T15:58:55;25.60;84.40
47660;DHT22;33403;43.608;1.458;2023-07-13T16:01:22;25.60;85.50
47660;DHT22;33403;43.608;1.458;2023-07-13T16:03:49;25.60;85.50
47660;DHT22;33403;43.608;1.458;2023-07-13T16:06:27;25.70;86.50
47660;DHT22;33403;43.608;1.458;2023-07-13T16:08:54;25.70;86.60
47660;DHT22;33403;43.608;1.458;2023-07-13T16:11:23;25.70;86.30
47660;DHT22;33403;43.608;1.458;2023-07-13T16:13:49;25.70;83.10
47660;DHT22;33403;43.608;1.458;2023-07-13T16:16:28;25.70;82.50
47660;DHT22;33403;43.608;1.458;2023-07-13T16:18:59;25.70;82.00